Station Historical Data
Daily Summary for January 18, 2017 Units:  English    Metric   Both
« Previous Day
Next Day »
Daily Weekly Monthly Yearly Custom
  High: Low: Average:
Temperature: 68.7 °F 54.0 °F 61.5 °F
Dew Point: 56.8 °F 49.3 °F 52.6 °F
Humidity: 89% 52% 73%
Wind Speed: 10.4mph 0.0mph 8.7mph
Wind Gust: 10.4mph - -
Wind- - SE
Pressure: 30.18 in 30.08 in -
Precipitation: 0.00 in    
Historical Graphs
 
 
Tabular Data for January 18, 2017
Time Temperature Dew Point Pressure Wind Wind Speed Wind Gust Humidity Rainfall Rate (Hourly) Conditions
00:00 63.0 °F 56.7 °F 30.13 in ENE 10.4 mph   80% 0.00 in
00:05 62.8 °F 56.5 °F 30.13 in NW 10.4 mph 10.4 mph 80% 0.00 in
00:10 62.6 °F 56.7 °F 30.13 in NW 10.4 mph   81% 0.00 in
00:15 62.4 °F 56.5 °F 30.13 in NW 10.4 mph   81% 0.00 in
00:20 62.4 °F 56.8 °F 30.12 in NNW 10.4 mph   82% 0.00 in
00:25 62.4 °F 56.8 °F 30.13 in NNW 10.4 mph   82% 0.00 in
00:30 62.2 °F 56.3 °F 30.13 in NNW 10.4 mph   81% 0.00 in
00:36 61.9 °F 56.3 °F 30.13 in NNW 10.4 mph   82% 0.00 in
00:41 61.7 °F 56.5 °F 30.12 in NNW 10.4 mph   83% 0.00 in
00:46 61.5 °F 56.3 °F 30.12 in NNW 10.4 mph   83% 0.00 in
00:51 61.4 °F 56.2 °F 30.12 in NNW 10.4 mph   83% 0.00 in
00:56 61.2 °F 56.3 °F 30.12 in NNW 10.4 mph   84% 0.00 in
01:01 61.0 °F 56.1 °F 30.12 in NNW 10.4 mph   84% 0.00 in
01:06 61.0 °F 56.1 °F 30.12 in NNW 10.4 mph   84% 0.00 in
01:11 60.9 °F 56.0 °F 30.12 in NNW 10.4 mph   84% 0.00 in
01:16 60.9 °F 56.0 °F 30.12 in NNW 10.4 mph   84% 0.00 in
01:21 60.9 °F 56.4 °F 30.11 in NNE 10.4 mph 10.4 mph 85% 0.00 in
01:26 60.9 °F 56.4 °F 30.11 in NNE 10.4 mph   85% 0.00 in
01:31 61.1 °F 56.6 °F 30.11 in NNE 10.4 mph   85% 0.00 in
01:36 61.3 °F 56.8 °F 30.11 in NNE 10.4 mph   85% 0.00 in
01:41 60.4 °F 55.5 °F 30.11 in NNE 10.4 mph   84% 0.00 in
01:46 60.4 °F 55.5 °F 30.11 in NNE 10.4 mph   84% 0.00 in
01:51 60.4 °F 55.5 °F 30.11 in North 10.4 mph   84% 0.00 in
01:56 60.4 °F 55.5 °F 30.11 in North 10.4 mph   84% 0.00 in
02:01 60.4 °F 55.5 °F 30.11 in North 10.4 mph   84% 0.00 in
02:06 60.4 °F 55.5 °F 30.11 in North 10.4 mph   84% 0.00 in
02:12 60.4 °F 55.5 °F 30.12 in North 10.4 mph   84% 0.00 in
02:17 60.4 °F 55.5 °F 30.12 in North 10.4 mph   84% 0.00 in
02:22 60.4 °F 55.5 °F 30.12 in North 10.4 mph   84% 0.00 in
02:27 60.4 °F 55.5 °F 30.12 in North 10.4 mph   84% 0.00 in
02:32 60.4 °F 55.5 °F 30.11 in North 10.4 mph   84% 0.00 in
02:37 60.4 °F 55.5 °F 30.11 in North 10.4 mph   84% 0.00 in
02:42 60.4 °F 55.5 °F 30.12 in North 10.4 mph   84% 0.00 in
02:47 60.4 °F 55.5 °F 30.11 in North 10.4 mph   84% 0.00 in
02:52 60.4 °F 55.5 °F 30.11 in North 10.4 mph   84% 0.00 in
02:57 60.4 °F 55.5 °F 30.11 in North 10.4 mph   84% 0.00 in
03:02 60.4 °F 55.5 °F 30.11 in North 10.4 mph   84% 0.00 in
03:07 60.4 °F 55.5 °F 30.11 in North 10.4 mph   84% 0.00 in
03:12 60.4 °F 55.5 °F 30.10 in North 10.4 mph   84% 0.00 in
03:18 60.4 °F 55.5 °F 30.10 in North 10.4 mph   84% 0.00 in
08:30 60.4 °F 55.5 °F 30.15 in Calm     84% 0.00 in CLR
08:36 60.4 °F 55.5 °F 30.15 in North 2.3 mph   84% 0.00 in CLR
08:41 60.4 °F 55.5 °F 30.16 in North 2.3 mph   84% 0.00 in CLR
08:46 60.4 °F 55.5 °F 30.16 in North 2.3 mph   84% 0.00 in CLR
08:51 60.4 °F 55.5 °F 30.16 in North 2.3 mph   84% 0.00 in CLR
08:56 60.4 °F 55.5 °F 30.16 in North 2.3 mph   84% 0.00 in CLR
09:01 60.4 °F 55.5 °F 30.16 in North 2.3 mph   84% 0.00 in OVC
09:06 60.4 °F 55.5 °F 30.16 in North 2.3 mph   84% 0.00 in OVC
09:11 60.4 °F 55.5 °F 30.16 in North 2.3 mph   84% 0.00 in OVC
09:16 60.4 °F 55.5 °F 30.16 in North 2.3 mph   84% 0.00 in OVC
09:21 60.4 °F 55.5 °F 30.16 in North 2.3 mph   84% 0.00 in OVC
09:26 60.4 °F 55.5 °F 30.17 in North 2.3 mph   84% 0.00 in OVC
09:31 60.4 °F 55.5 °F 30.17 in North 2.3 mph   84% 0.00 in OVC
09:36 60.4 °F 55.5 °F 30.17 in North 2.3 mph   84% 0.00 in OVC
09:41 60.4 °F 55.5 °F 30.17 in North 2.3 mph   84% 0.00 in OVC
09:46 60.4 °F 55.5 °F 30.17 in North 2.3 mph   84% 0.00 in OVC
09:51 60.4 °F 55.5 °F 30.18 in North 2.3 mph   84% 0.00 in OVC
09:57 60.4 °F 55.5 °F 30.18 in North 2.3 mph   84% 0.00 in OVC
10:02 59.3 °F 56.1 °F 30.18 in WSW 2.3 mph 2.3 mph 89% 0.00 in OVC
10:07 59.5 °F 55.9 °F 30.18 in West 3.5 mph 3.5 mph 88% 0.00 in OVC
10:12 59.6 °F 55.7 °F 30.18 in East 5.1 mph 5.1 mph 87% 0.00 in OVC
10:17 60.1 °F 56.5 °F 30.18 in NW 5.1 mph   88% 0.00 in OVC
10:22 60.7 °F 56.2 °F 30.17 in West 5.1 mph 5.1 mph 85% 0.00 in OVC
10:28 61.3 °F 55.8 °F 30.17 in South 6.1 mph 6.1 mph 82% 0.00 in OVC
10:33 61.7 °F 55.8 °F 30.18 in SSW 6.1 mph 6.1 mph 81% 0.00 in OVC
10:38 62.0 °F 55.1 °F 30.18 in ESE 9.2 mph 9.2 mph 78% 0.00 in OVC
10:43 62.2 °F 55.6 °F 30.17 in WNW 9.2 mph 9.2 mph 79% 0.00 in OVC
10:48 62.7 °F 55.4 °F 30.17 in WNW 9.2 mph 9.2 mph 77% 0.00 in OVC
10:53 62.6 °F 54.9 °F 30.17 in SE 9.2 mph 9.2 mph 76% 0.00 in OVC
11:00 62.6 °F 54.9 °F 30.17 in West 9.2 mph   76% 0.00 in OVC
11:05 62.6 °F 55.3 °F 30.17 in SW 9.2 mph 9.2 mph 77% 0.00 in OVC
11:10 62.6 °F 54.9 °F 30.17 in ESE 9.2 mph 9.2 mph 76% 0.00 in OVC
11:15 62.6 °F 55.3 °F 30.17 in WNW 9.2 mph 9.2 mph 77% 0.00 in OVC
11:20 62.8 °F 54.8 °F 30.17 in East 9.2 mph 9.2 mph 75% 0.00 in OVC
11:25 63.2 °F 54.8 °F 30.17 in North 9.2 mph 9.2 mph 74% 0.00 in OVC
11:30 63.6 °F 54.4 °F 30.16 in West 9.2 mph   72% 0.00 in OVC
11:35 63.8 °F 54.2 °F 30.16 in NW 9.2 mph   71% 0.00 in OVC
11:40 63.7 °F 53.7 °F 30.17 in NNE 9.2 mph 9.2 mph 70% 0.00 in OVC
11:45 63.7 °F 53.7 °F 30.16 in SSE 9.2 mph 9.2 mph 70% 0.00 in OVC
11:50 63.2 °F 53.3 °F 30.16 in NNE 9.2 mph   70% 0.00 in OVC
11:52 63.2 °F 53.6 °F 30.16 in NNW 9.2 mph 9.2 mph 71% 0.00 in OVC
11:57 63.3 °F 53.7 °F 30.16 in West 9.2 mph 9.2 mph 71% 0.00 in OVC
12:02 63.3 °F 54.1 °F 30.16 in North 9.2 mph 9.2 mph 72% 0.00 in OVC
12:07 63.0 °F 54.2 °F 30.15 in South 9.2 mph 9.2 mph 73% 0.00 in OVC
12:12 63.0 °F 54.9 °F 30.14 in NW 9.2 mph 9.2 mph 75% 0.00 in OVC
12:17 62.9 °F 54.9 °F 30.14 in NNE 9.2 mph   75% 0.00 in OVC
12:22 62.7 °F 54.7 °F 30.14 in NE 9.2 mph 9.2 mph 75% 0.00 in OVC
12:27 62.9 °F 54.1 °F 30.15 in NE 9.2 mph 9.2 mph 73% 0.00 in OVC
12:33 63.1 °F 54.3 °F 30.15 in NE 9.2 mph 9.2 mph 73% 0.00 in OVC
12:38 63.8 °F 54.6 °F 30.14 in WNW 9.2 mph   72% 0.00 in OVC
12:43 64.4 °F 54.8 °F 30.14 in NW 9.2 mph 9.2 mph 71% 0.00 in OVC
12:48 64.3 °F 54.3 °F 30.13 in WNW 9.2 mph 9.2 mph 70% 0.00 in OVC
12:53 64.3 °F 53.5 °F 30.13 in SW 9.2 mph 9.2 mph 68% 0.00 in OVC
12:58 64.2 °F 53.8 °F 30.12 in WNW 9.2 mph   69% 0.00 in OVC
13:03 64.4 °F 53.2 °F 30.12 in WNW 9.2 mph 9.2 mph 67% 0.00 in OVC
13:08 64.2 °F 50.9 °F 30.12 in East 9.2 mph 9.2 mph 62% 0.00 in OVC
13:13 64.3 °F 51.9 °F 30.12 in NNE 9.2 mph   64% 0.00 in OVC
13:18 64.9 °F 52.4 °F 30.12 in East 9.2 mph 9.2 mph 64% 0.00 in OVC
13:23 64.9 °F 52.0 °F 30.12 in SE 9.2 mph   63% 0.00 in OVC
13:29 65.4 °F 52.9 °F 30.12 in North 9.2 mph 9.2 mph 64% 0.00 in OVC
13:34 66.4 °F 52.1 °F 30.11 in SSW 9.2 mph 9.2 mph 60% 0.00 in OVC
13:39 66.3 °F 51.5 °F 30.11 in SE 9.2 mph 9.2 mph 59% 0.00 in OVC
13:44 66.3 °F 52.0 °F 30.10 in SSW 9.2 mph 9.2 mph 60% 0.00 in OVC
13:49 66.4 °F 51.6 °F 30.10 in North 9.2 mph 9.2 mph 59% 0.00 in OVC
13:54 66.6 °F 50.9 °F 30.10 in NNE 9.2 mph 9.2 mph 57% 0.00 in OVC
13:59 66.6 °F 50.9 °F 30.10 in ESE 9.2 mph 9.2 mph 57% 0.00 in OVC
14:04 66.0 °F 51.7 °F 30.09 in ESE 9.2 mph   60% 0.00 in OVC
14:09 66.6 °F 51.8 °F 30.09 in ESE 9.2 mph 9.2 mph 59% 0.00 in OVC
14:14 66.8 °F 51.1 °F 30.09 in SSE 9.2 mph 9.2 mph 57% 0.00 in OVC
14:20 67.0 °F 51.7 °F 30.09 in NW 9.2 mph   58% 0.00 in OVC
14:25 67.4 °F 50.7 °F 30.09 in East 9.2 mph 9.2 mph 55% 0.00 in OVC
14:30 67.2 °F 51.0 °F 30.09 in ESE 9.2 mph 9.2 mph 56% 0.00 in OVC
14:35 67.3 °F 51.1 °F 30.09 in NNW 9.2 mph 9.2 mph 56% 0.00 in OVC
14:40 67.3 °F 50.6 °F 30.09 in East 9.2 mph 9.2 mph 55% 0.00 in OVC
14:45 67.5 °F 50.8 °F 30.09 in NE 9.2 mph   55% 0.00 in OVC
14:50 67.8 °F 51.0 °F 30.09 in SSE 9.2 mph 9.2 mph 55% 0.00 in OVC
14:55 67.7 °F 50.5 °F 30.09 in NNW 9.2 mph   54% 0.00 in OVC
15:00 67.8 °F 51.0 °F 30.09 in NNW 9.2 mph 9.2 mph 55% 0.00 in OVC
15:05 67.9 °F 50.6 °F 30.09 in NNW 9.2 mph 9.2 mph 54% 0.00 in OVC
15:10 67.9 °F 50.6 °F 30.09 in SE 9.2 mph 9.2 mph 54% 0.00 in OVC
15:16 67.9 °F 51.1 °F 30.09 in WNW 9.2 mph 9.2 mph 55% 0.00 in OVC
15:21 67.9 °F 51.1 °F 30.09 in WSW 9.2 mph 9.2 mph 55% 0.00 in OVC
15:26 67.9 °F 50.6 °F 30.09 in SW 9.2 mph 9.2 mph 54% 0.00 in OVC
15:31 67.9 °F 50.6 °F 30.09 in North 9.2 mph 9.2 mph 54% 0.00 in OVC
15:36 67.9 °F 51.1 °F 30.09 in WSW 9.2 mph 9.2 mph 55% 0.00 in OVC
15:41 67.8 °F 51.0 °F 30.08 in WNW 9.2 mph   55% 0.00 in OVC
15:46 68.2 °F 50.9 °F 30.08 in NNW 9.2 mph 9.2 mph 54% 0.00 in OVC
15:51 68.6 °F 50.8 °F 30.08 in North 9.2 mph 9.2 mph 53% 0.00 in OVC
15:56 68.7 °F 50.4 °F 30.09 in NE 9.2 mph 9.2 mph 52% 0.00 in OVC
16:02 68.4 °F 50.6 °F 30.09 in WNW 9.2 mph 9.2 mph 53% 0.00 in CLR
16:07 68.2 °F 50.4 °F 30.09 in ESE 9.2 mph 9.2 mph 53% 0.00 in CLR
16:12 68.1 °F 51.3 °F 30.08 in NNE 9.2 mph   55% 0.00 in CLR
16:17 67.9 °F 50.6 °F 30.09 in East 9.2 mph 9.2 mph 54% 0.00 in CLR
16:22 67.7 °F 50.9 °F 30.09 in West 9.2 mph   55% 0.00 in CLR
16:27 67.6 °F 50.9 °F 30.08 in North 9.2 mph   55% 0.00 in CLR
16:32 67.4 °F 51.2 °F 30.08 in WNW 9.2 mph   56% 0.00 in CLR
16:37 67.1 °F 51.4 °F 30.08 in West 9.2 mph 9.2 mph 57% 0.00 in CLR
16:42 66.9 °F 50.7 °F 30.09 in West 9.2 mph   56% 0.00 in CLR
16:47 66.9 °F 50.7 °F 30.09 in NNE 9.2 mph 9.2 mph 56% 0.00 in CLR
16:53 66.9 °F 50.7 °F 30.09 in West 9.2 mph   56% 0.00 in CLR
16:58 66.8 °F 51.1 °F 30.08 in WNW 9.2 mph   57% 0.00 in CLR
17:03 66.5 °F 50.8 °F 30.08 in NNW 9.2 mph 9.2 mph 57% 0.00 in CLR
17:08 66.2 °F 51.0 °F 30.08 in NNW 9.2 mph   58% 0.00 in CLR
17:13 66.0 °F 50.8 °F 30.08 in West 9.2 mph 9.2 mph 58% 0.00 in CLR
17:18 65.8 °F 51.1 °F 30.08 in NNW 9.2 mph   59% 0.00 in CLR
17:23 65.6 °F 50.9 °F 30.08 in NNW 9.2 mph   59% 0.00 in CLR
17:28 65.3 °F 51.1 °F 30.08 in NNW 9.2 mph   60% 0.00 in CLR
17:33 65.0 °F 50.8 °F 30.08 in NNW 9.2 mph   60% 0.00 in CLR
17:38 64.7 °F 50.9 °F 30.09 in NNW 9.2 mph   61% 0.00 in CLR
17:43 64.3 °F 51.0 °F 30.09 in NNW 9.2 mph   62% 0.00 in CLR
17:49 64.0 °F 50.7 °F 30.08 in NNW 9.2 mph   62% 0.00 in CLR
17:54 63.7 °F 50.9 °F 30.09 in NNW 9.2 mph   63% 0.00 in CLR
17:59 63.3 °F 50.5 °F 30.09 in NNW 9.2 mph   63% 0.00 in CLR
18:04 63.0 °F 50.6 °F 30.09 in NNW 9.2 mph   64% 0.00 in
18:09 62.6 °F 50.7 °F 30.08 in NNW 9.2 mph   65% 0.00 in
18:14 62.2 °F 50.7 °F 30.09 in NNW 9.2 mph   66% 0.00 in
18:19 61.8 °F 50.7 °F 30.09 in NNW 9.2 mph   67% 0.00 in
18:24 61.5 °F 50.4 °F 30.09 in NNW 9.2 mph   67% 0.00 in
18:29 61.2 °F 50.6 °F 30.09 in NNW 9.2 mph   68% 0.00 in
18:35 61.0 °F 50.4 °F 30.10 in NNW 9.2 mph   68% 0.00 in
18:40 60.7 °F 50.5 °F 30.10 in NNW 9.2 mph   69% 0.00 in
18:45 60.4 °F 50.2 °F 30.10 in NNW 9.2 mph   69% 0.00 in
18:50 60.1 °F 50.3 °F 30.10 in NNW 9.2 mph   70% 0.00 in
18:55 60.0 °F 50.2 °F 30.10 in NNW 9.2 mph   70% 0.00 in
19:00 59.7 °F 49.9 °F 30.10 in NNW 9.2 mph   70% 0.00 in
19:05 59.4 °F 50.4 °F 30.11 in NNW 9.2 mph   72% 0.00 in
19:10 59.2 °F 50.2 °F 30.11 in NNW 9.2 mph   72% 0.00 in
19:15 58.9 °F 50.3 °F 30.11 in NNW 9.2 mph   73% 0.00 in
19:20 58.6 °F 50.0 °F 30.12 in NNW 9.2 mph   73% 0.00 in
19:26 58.5 °F 50.2 °F 30.12 in NNW 9.2 mph   74% 0.00 in
19:31 58.4 °F 50.1 °F 30.12 in NNW 9.2 mph   74% 0.00 in
19:36 58.2 °F 50.3 °F 30.11 in NNW 9.2 mph   75% 0.00 in
19:41 58.2 °F 50.3 °F 30.11 in NNE 9.2 mph   75% 0.00 in
19:46 58.2 °F 50.0 °F 30.11 in North 9.2 mph   74% 0.00 in
19:51 58.1 °F 50.2 °F 30.11 in NNE 9.2 mph   75% 0.00 in
19:56 57.9 °F 50.0 °F 30.11 in NNE 9.2 mph   75% 0.00 in
20:01 57.6 °F 50.1 °F 30.11 in North 9.2 mph   76% 0.00 in
20:06 57.5 °F 50.0 °F 30.11 in NNE 9.2 mph   76% 0.00 in
20:12 57.6 °F 50.1 °F 30.12 in NNE 9.2 mph   76% 0.00 in
20:17 57.6 °F 50.1 °F 30.12 in NNE 9.2 mph   76% 0.00 in
20:22 57.4 °F 49.9 °F 30.12 in NNE 9.2 mph   76% 0.00 in
20:27 57.3 °F 49.8 °F 30.11 in NNE 9.2 mph   76% 0.00 in
20:32 57.1 °F 50.0 °F 30.11 in NNE 9.2 mph   77% 0.00 in
20:37 57.0 °F 49.9 °F 30.11 in NNE 9.2 mph   77% 0.00 in
20:42 56.9 °F 49.8 °F 30.11 in North 9.2 mph   77% 0.00 in
20:47 56.9 °F 50.1 °F 30.12 in NNE 9.2 mph   78% 0.00 in
20:52 56.8 °F 50.0 °F 30.11 in North 9.2 mph   78% 0.00 in
20:57 56.8 °F 50.0 °F 30.11 in NNE 9.2 mph   78% 0.00 in
21:02 56.6 °F 49.8 °F 30.11 in NNE 9.2 mph   78% 0.00 in
21:08 56.5 °F 49.7 °F 30.11 in NNE 9.2 mph   78% 0.00 in
21:13 56.5 °F 50.1 °F 30.11 in NNE 9.2 mph   79% 0.00 in
21:18 56.3 °F 49.9 °F 30.11 in NNE 9.2 mph   79% 0.00 in
21:23 56.2 °F 49.8 °F 30.12 in NNE 9.2 mph   79% 0.00 in
21:28 56.1 °F 50.0 °F 30.11 in NNE 9.2 mph   80% 0.00 in
21:33 56.0 °F 49.9 °F 30.11 in NNE 9.2 mph   80% 0.00 in
21:38 56.0 °F 49.9 °F 30.11 in NNE 9.2 mph   80% 0.00 in
21:43 56.0 °F 49.9 °F 30.11 in NNE 9.2 mph   80% 0.00 in
21:48 56.0 °F 50.3 °F 30.11 in NNE 9.2 mph   81% 0.00 in
21:53 56.1 °F 50.0 °F 30.11 in NNE 9.2 mph   80% 0.00 in
22:01 56.0 °F 50.3 °F 30.11 in NNE 9.2 mph   81% 0.00 in
22:06 56.0 °F 50.3 °F 30.11 in NNE 9.2 mph   81% 0.00 in
22:11 56.0 °F 50.3 °F 30.11 in NNE 9.2 mph   81% 0.00 in
22:16 55.9 °F 50.2 °F 30.12 in NNE 9.2 mph   81% 0.00 in
22:21 55.8 °F 50.1 °F 30.11 in North 9.2 mph   81% 0.00 in
22:26 55.7 °F 50.0 °F 30.11 in NNE 9.2 mph   81% 0.00 in
22:31 55.5 °F 50.1 °F 30.11 in NNE 9.2 mph   82% 0.00 in
22:36 55.5 °F 50.1 °F 30.11 in NNE 9.2 mph   82% 0.00 in
22:41 55.4 °F 50.0 °F 30.11 in NNE 9.2 mph   82% 0.00 in
22:46 55.3 °F 49.9 °F 30.11 in NNE 9.2 mph   82% 0.00 in
22:52 55.2 °F 50.1 °F 30.11 in North 9.2 mph   83% 0.00 in
22:57 55.1 °F 50.0 °F 30.11 in NNE 9.2 mph   83% 0.00 in
23:02 55.0 °F 49.9 °F 30.11 in NNE 9.2 mph   83% 0.00 in
23:07 54.9 °F 49.8 °F 30.11 in NNE 9.2 mph   83% 0.00 in
23:12 54.9 °F 49.8 °F 30.11 in North 9.2 mph   83% 0.00 in
23:17 54.9 °F 49.8 °F 30.12 in NNE 9.2 mph   83% 0.00 in
23:22 54.8 °F 49.7 °F 30.12 in North 9.2 mph   83% 0.00 in
23:27 54.6 °F 49.5 °F 30.11 in NNE 9.2 mph   83% 0.00 in
23:32 54.4 °F 49.3 °F 30.12 in NNE 9.2 mph   83% 0.00 in
23:37 54.2 °F 49.5 °F 30.12 in NNE 9.2 mph   84% 0.00 in
23:43 54.1 °F 49.4 °F 30.12 in NNE 9.2 mph   84% 0.00 in
23:48 54.1 °F 49.4 °F 30.11 in NNE 9.2 mph   84% 0.00 in
23:53 54.0 °F 49.3 °F 30.11 in NNE 9.2 mph   84% 0.00 in
23:58 54.0 °F 49.6 °F 30.11 in NNE 9.2 mph   85% 0.00 in
Piedmont Bend
Compliments of Weather Underground - 4 mb